Time,TemperatureF,DewpointF,PressureIn,WindDirection,WindDirectionDegrees,WindSpeedMPH,WindSpeedGustMPH,Humidity,HourlyPrecipIn,Conditions,Clouds,dailyrainin,SolarRadiationWatts/m^2,SoftwareType,DateUTC
2013-01-23 00:02:00,36.0,30.1,29.40,East,92,6.9,6.9,79,0.01,RA,,0.00,0.0,WeatherDisplay:10.37,2013-01-23 09:02:00,
2013-01-23 00:07:00,36.0,30.1,29.40,NNE,33,8.1,8.1,79,0.01,RA,,0.00,0.0,WeatherDisplay:10.37,2013-01-23 09:07:00,
2013-01-23 00:12:00,35.9,30.0,29.40,East,94,8.1,8.1,79,0.01,OVC,,0.00,0.0,WeatherDisplay:10.37,2013-01-23 09:12:00,
2013-01-23 00:17:00,35.9,30.0,29.40,NE,53,8.0,8.0,79,0.01,OVC,,0.00,0.0,WeatherDisplay:10.37,2013-01-23 09:17:00,
2013-01-23 00:22:00,35.8,29.9,29.40,East,88,8.0,8.0,79,0.01,OVC,,0.00,0.0,WeatherDisplay:10.37,2013-01-23 09:22:00,
2013-01-23 00:27:00,35.7,29.8,29.39,ENE,65,9.0,9.0,79,0.01,OVC,,0.00,0.0,WeatherDisplay:10.37,2013-01-23 09:27:00,
2013-01-23 00:32:00,35.7,29.5,29.39,NE,50,8.1,8.1,78,0.01,OVC,,0.00,0.0,WeatherDisplay:10.37,2013-01-23 09:32:00,
2013-01-23 00:37:00,35.6,29.4,29.39,ENE,75,9.2,9.2,78,0.01,OVC,,0.00,0.0,WeatherDisplay:10.37,2013-01-23 09:37:00,
2013-01-23 00:42:00,35.6,29.4,29.39,East,85,5.8,5.8,78,0.00,OVC,,0.00,0.0,WeatherDisplay:10.37,2013-01-23 09:42:00,
2013-01-23 00:47:00,35.6,29.1,29.39,ENE,77,10.4,10.4,77,0.00,OVC,,0.00,0.0,WeatherDisplay:10.37,2013-01-23 09:47:00,
2013-01-23 00:52:00,35.6,29.1,29.39,East,79,8.1,8.1,77,0.00,OVC,,0.00,0.0,WeatherDisplay:10.37,2013-01-23 09:52:00,
2013-01-23 00:57:00,35.7,28.9,29.39,NE,55,6.9,6.9,76,0.00,OVC,,0.00,0.0,WeatherDisplay:10.37,2013-01-23 09:57:00,
2013-01-23 01:02:00,35.8,28.6,29.39,East,86,8.1,8.1,75,0.00,OVC,,0.00,0.0,WeatherDisplay:10.37,2013-01-23 10:02:00,
2013-01-23 01:07:00,35.9,28.4,29.39,ENE,74,10.0,10.0,74,0.00,OVC,,0.00,0.0,WeatherDisplay:10.37,2013-01-23 10:07:00,
2013-01-23 01:12:00,35.9,28.4,29.39,NE,55,10.4,10.4,74,0.00,OVC,,0.00,0.0,WeatherDisplay:10.37,2013-01-23 10:12:00,
2013-01-23 01:17:00,35.9,28.1,29.39,East,82,10.4,10.4,73,0.00,OVC,,0.00,0.0,WeatherDisplay:10.37,2013-01-23 10:17:00,
2013-01-23 01:22:00,35.9,27.7,29.39,ENE,78,10.4,10.4,72,0.00,OVC,,0.00,0.0,WeatherDisplay:10.37,2013-01-23 10:22:00,
2013-01-23 01:27:00,35.9,27.7,29.39,NE,52,11.5,11.5,72,0.00,OVC,,0.00,0.0,WeatherDisplay:10.37,2013-01-23 10:27:00,
2013-01-23 01:32:00,35.9,27.7,29.38,East,99,5.8,5.8,72,0.00,OVC,,0.00,0.0,WeatherDisplay:10.37,2013-01-23 10:32:00,
2013-01-23 01:37:00,35.8,27.7,29.38,NNE,32,9.2,9.2,72,0.00,OVC,,0.00,0.0,WeatherDisplay:10.37,2013-01-23 10:37:00,
2013-01-23 01:42:00,35.9,27.7,29.38,NE,39,8.1,8.1,72,0.00,OVC,,0.00,0.0,WeatherDisplay:10.37,2013-01-23 10:42:00,
2013-01-23 01:47:00,35.9,27.7,29.38,East,83,10.4,10.4,72,0.00,OVC,,0.00,0.0,WeatherDisplay:10.37,2013-01-23 10:47:00,
2013-01-23 01:52:00,35.9,27.7,29.38,ENE,70,11.5,11.5,72,0.00,OVC,,0.00,0.0,WeatherDisplay:10.37,2013-01-23 10:52:00,
2013-01-23 01:57:00,36.0,27.8,29.38,ENE,70,8.1,8.1,72,0.00,OVC,,0.00,0.0,WeatherDisplay:10.37,2013-01-23 10:57:00,
2013-01-23 02:02:00,36.0,27.8,29.39,East,80,8.1,8.1,72,0.00,SCT,,0.00,0.0,WeatherDisplay:10.37,2013-01-23 11:02:00,
2013-01-23 02:07:00,35.9,27.7,29.39,NE,39,8.1,8.1,72,0.00,SCT,,0.00,0.0,WeatherDisplay:10.37,2013-01-23 11:07:00,
2013-01-23 02:12:00,35.9,27.7,29.38,NNE,25,10.4,10.4,72,0.00,SCT,,0.00,0.0,WeatherDisplay:10.37,2013-01-23 11:12:00,
2013-01-23 02:17:00,35.8,27.7,29.38,ENE,62,9.2,9.2,72,0.00,SCT,,0.00,0.0,WeatherDisplay:10.37,2013-01-23 11:17:00,
2013-01-23 02:22:00,35.8,27.7,29.37,NNE,29,8.1,8.1,72,0.00,SCT,,0.00,0.0,WeatherDisplay:10.37,2013-01-23 11:22:00,
2013-01-23 02:27:00,35.8,27.7,29.37,ESE,104,9.2,9.2,72,0.00,SCT,,0.00,0.0,WeatherDisplay:10.37,2013-01-23 11:27:00,
2013-01-23 02:32:00,35.8,27.7,29.38,East,87,9.2,9.2,72,0.00,SCT,,0.00,0.0,WeatherDisplay:10.37,2013-01-23 11:32:00,
2013-01-23 02:37:00,35.7,27.6,29.37,East,82,7.0,7.0,72,0.00,SCT,,0.00,0.0,WeatherDisplay:10.37,2013-01-23 11:37:00,
2013-01-23 02:42:00,35.6,27.5,29.37,ENE,76,11.5,11.5,72,0.00,SCT,,0.00,0.0,WeatherDisplay:10.37,2013-01-23 11:42:00,
2013-01-23 02:47:00,35.5,27.4,29.37,ENE,67,15.0,15.0,72,0.00,SCT,,0.00,0.0,WeatherDisplay:10.37,2013-01-23 11:47:00,
2013-01-23 02:52:00,35.5,27.4,29.37,East,95,8.1,8.1,72,0.00,SCT,,0.00,0.0,WeatherDisplay:10.37,2013-01-23 11:52:00,
2013-01-23 02:57:00,35.4,27.6,29.37,ESE,104,8.0,8.0,73,0.00,SCT,,0.00,0.0,WeatherDisplay:10.37,2013-01-23 11:57:00,
2013-01-23 03:02:00,35.4,27.6,29.37,East,96,10.4,10.4,73,0.00,CLR,,0.00,0.0,WeatherDisplay:10.37,2013-01-23 12:02:00,
2013-01-23 03:07:00,35.5,27.4,29.36,ENE,66,6.9,6.9,72,0.00,CLR,,0.00,0.0,WeatherDisplay:10.37,2013-01-23 12:07:00,
2013-01-23 03:12:00,35.5,27.4,29.36,ENE,59,8.0,8.0,72,0.00,CLR,,0.00,0.0,WeatherDisplay:10.37,2013-01-23 12:12:00,
2013-01-23 03:17:00,35.5,27.4,29.36,NE,43,6.0,6.0,72,0.00,CLR,,0.00,0.0,WeatherDisplay:10.37,2013-01-23 12:17:00,
2013-01-23 03:22:00,35.5,27.4,29.35,ENE,74,8.0,8.0,72,0.00,CLR,,0.00,0.0,WeatherDisplay:10.37,2013-01-23 12:22:00,
2013-01-23 03:27:00,35.6,27.1,29.35,NE,53,6.9,6.9,71,0.00,CLR,,0.00,0.0,WeatherDisplay:10.37,2013-01-23 12:27:00,
2013-01-23 03:32:00,35.7,27.2,29.36,ESE,106,7.0,7.0,71,0.00,CLR,,0.00,0.0,WeatherDisplay:10.37,2013-01-23 12:32:00,
2013-01-23 03:37:00,35.7,27.2,29.35,East,84,15.0,15.0,71,0.00,CLR,,0.00,0.0,WeatherDisplay:10.37,2013-01-23 12:37:00,
2013-01-23 03:42:00,35.7,27.2,29.35,ENE,64,11.5,11.5,71,0.00,CLR,,0.00,0.0,WeatherDisplay:10.37,2013-01-23 12:42:00,
2013-01-23 03:47:00,35.5,27.0,29.35,NE,51,10.4,10.4,71,0.00,CLR,,0.00,0.0,WeatherDisplay:10.37,2013-01-23 12:47:00,
2013-01-23 03:52:00,35.3,27.2,29.35,ENE,69,10.4,10.4,72,0.00,CLR,,0.00,0.0,WeatherDisplay:10.37,2013-01-23 12:52:00,
2013-01-23 03:57:00,35.2,27.1,29.35,East,88,10.4,10.4,72,0.00,CLR,,0.00,0.0,WeatherDisplay:10.37,2013-01-23 12:57:00,
2013-01-23 04:02:00,35.1,27.0,29.35,ENE,67,12.7,12.7,72,0.00,CLR,,0.00,0.0,WeatherDisplay:10.37,2013-01-23 13:02:00,
2013-01-23 04:07:00,34.9,27.1,29.35,ENE,65,7.0,7.0,73,0.00,CLR,,0.00,0.0,WeatherDisplay:10.37,2013-01-23 13:07:00,
2013-01-23 04:12:00,34.7,26.9,29.34,ENE,67,11.5,11.5,73,0.00,CLR,,0.00,0.0,WeatherDisplay:10.37,2013-01-23 13:12:00,
2013-01-23 04:17:00,34.6,26.8,29.35,ENE,74,8.1,8.1,73,0.00,CLR,,0.00,0.0,WeatherDisplay:10.37,2013-01-23 13:17:00,
2013-01-23 04:22:00,34.4,27.0,29.35,East,88,12.7,12.7,74,0.00,CLR,,0.00,0.0,WeatherDisplay:10.37,2013-01-23 13:22:00,
2013-01-23 04:27:00,34.2,26.8,29.35,NE,55,8.1,8.1,74,0.00,CLR,,0.00,0.0,WeatherDisplay:10.37,2013-01-23 13:27:00,
2013-01-23 04:32:00,34.1,27.0,29.35,NNE,30,11.5,11.5,75,0.00,CLR,,0.00,0.0,WeatherDisplay:10.37,2013-01-23 13:32:00,
2013-01-23 04:37:00,34.0,26.9,29.35,NNE,21,9.2,9.2,75,0.00,CLR,,0.00,0.0,WeatherDisplay:10.37,2013-01-23 13:37:00,
2013-01-23 04:42:00,33.8,27.0,29.34,ENE,68,6.9,6.9,76,0.00,CLR,,0.00,0.0,WeatherDisplay:10.37,2013-01-23 13:42:00,
2013-01-23 04:47:00,33.6,26.8,29.34,East,93,10.0,10.0,76,0.00,CLR,,0.00,0.0,WeatherDisplay:10.37,2013-01-23 13:47:00,
2013-01-23 04:52:00,33.5,26.7,29.34,ESE,110,10.4,10.4,76,0.00,CLR,,0.00,0.0,WeatherDisplay:10.37,2013-01-23 13:52:00,
2013-01-23 04:57:00,33.3,26.9,29.34,NE,34,8.1,8.1,77,0.00,CLR,,0.00,0.0,WeatherDisplay:10.37,2013-01-23 13:57:00,
2013-01-23 05:02:00,33.2,26.8,29.33,ENE,70,10.4,10.4,77,0.01,RA,,0.01,0.0,WeatherDisplay:10.37,2013-01-23 14:02:00,
2013-01-23 05:07:00,33.2,26.8,29.33,ENE,75,11.5,11.5,77,0.01,RA,,0.01,0.0,WeatherDisplay:10.37,2013-01-23 14:07:00,
2013-01-23 05:12:00,33.3,26.9,29.33,ENE,59,11.5,11.5,77,0.01,CLR,,0.01,0.0,WeatherDisplay:10.37,2013-01-23 14:12:00,
2013-01-23 05:17:00,33.4,26.6,29.33,NE,45,10.4,10.4,76,0.01,CLR,,0.01,0.0,WeatherDisplay:10.37,2013-01-23 14:17:00,
2013-01-23 05:22:00,33.5,26.4,29.33,NNE,26,13.8,13.8,75,0.01,CLR,,0.01,0.0,WeatherDisplay:10.37,2013-01-23 14:22:00,
2013-01-23 05:27:00,33.7,26.6,29.33,NE,34,6.9,6.9,75,0.01,CLR,,0.01,0.0,WeatherDisplay:10.37,2013-01-23 14:27:00,
2013-01-23 05:32:00,33.8,26.7,29.33,East,80,3.5,4.6,75,0.01,CLR,,0.01,0.0,WeatherDisplay:10.37,2013-01-23 14:32:00,
2013-01-23 05:37:00,33.8,26.7,29.33,NE,44,11.5,11.5,75,0.01,CLR,,0.01,0.0,WeatherDisplay:10.37,2013-01-23 14:37:00,
2013-01-23 05:42:00,33.9,26.8,29.33,ENE,66,8.1,8.1,75,0.01,CLR,,0.01,0.0,WeatherDisplay:10.37,2013-01-23 14:42:00,
2013-01-23 05:47:00,33.9,26.8,29.32,East,80,9.2,9.2,75,0.01,CLR,,0.01,0.0,WeatherDisplay:10.37,2013-01-23 14:47:00,
2013-01-23 05:52:00,34.0,26.9,29.32,ENE,78,8.1,8.1,75,0.01,CLR,,0.01,0.0,WeatherDisplay:10.37,2013-01-23 14:52:00,
2013-01-23 05:57:00,34.1,26.7,29.32,NE,36,12.0,12.0,74,0.01,CLR,,0.01,0.0,WeatherDisplay:10.37,2013-01-23 14:57:00,
2013-01-23 06:02:00,34.3,26.9,29.32,ENE,73,6.9,6.9,74,0.01,RA,,0.02,0.0,WeatherDisplay:10.37,2013-01-23 15:02:00,
2013-01-23 06:08:00,34.4,27.0,29.32,ENE,76,9.2,9.2,74,0.01,RA,,0.02,0.0,WeatherDisplay:10.37,2013-01-23 15:08:00,
2013-01-23 06:13:00,34.4,26.6,29.32,ENE,69,11.5,11.5,73,0.01,CLR,,0.02,0.0,WeatherDisplay:10.37,2013-01-23 15:13:00,
2013-01-23 06:18:00,34.5,26.7,29.31,East,90,6.9,6.9,73,0.01,CLR,,0.02,0.0,WeatherDisplay:10.37,2013-01-23 15:18:00,
2013-01-23 06:23:00,34.5,26.7,29.31,ENE,65,4.6,4.6,73,0.01,CLR,,0.02,0.0,WeatherDisplay:10.37,2013-01-23 15:23:00,
2013-01-23 06:28:00,34.5,26.7,29.31,East,81,8.1,8.1,73,0.01,CLR,,0.02,0.0,WeatherDisplay:10.37,2013-01-23 15:28:00,
2013-01-23 06:33:00,34.6,27.2,29.32,ENE,73,6.9,6.9,74,0.01,CLR,,0.02,0.0,WeatherDisplay:10.37,2013-01-23 15:33:00,
2013-01-23 06:38:00,34.5,27.1,29.31,East,84,8.1,8.1,74,0.01,CLR,,0.02,0.0,WeatherDisplay:10.37,2013-01-23 15:38:00,
2013-01-23 06:43:00,34.4,27.0,29.31,ENE,78,6.9,6.9,74,0.01,CLR,,0.02,0.0,WeatherDisplay:10.37,2013-01-23 15:43:00,
2013-01-23 06:48:00,34.4,27.0,29.31,ENE,78,8.1,8.1,74,0.01,CLR,,0.02,0.0,WeatherDisplay:10.37,2013-01-23 15:48:00,
2013-01-23 06:53:00,34.3,27.2,29.31,NE,52,4.6,4.6,75,0.01,CLR,,0.02,0.0,WeatherDisplay:10.37,2013-01-23 15:53:00,
2013-01-23 06:58:00,34.3,27.2,29.31,East,81,6.9,6.9,75,0.01,CLR,,0.02,0.0,WeatherDisplay:10.37,2013-01-23 15:58:00,
2013-01-23 07:03:00,34.4,27.3,29.31,East,98,5.8,5.8,75,0.00,CLR,,0.02,0.0,WeatherDisplay:10.37,2013-01-23 16:03:00,
2013-01-23 07:08:00,34.4,27.3,29.31,ENE,63,11.5,11.5,75,0.00,CLR,,0.02,0.0,WeatherDisplay:10.37,2013-01-23 16:08:00,
2013-01-23 07:13:00,34.3,27.2,29.30,East,99,6.9,6.9,75,0.00,CLR,,0.02,0.0,WeatherDisplay:10.37,2013-01-23 16:13:00,
2013-01-23 07:18:00,34.2,27.1,29.30,ENE,69,6.9,6.9,75,0.00,CLR,,0.02,0.0,WeatherDisplay:10.37,2013-01-23 16:18:00,
2013-01-23 07:23:00,34.3,27.2,29.30,East,94,8.1,8.1,75,0.00,CLR,,0.02,0.0,WeatherDisplay:10.37,2013-01-23 16:23:00,
2013-01-23 07:28:00,34.4,27.3,29.31,East,84,8.1,8.1,75,0.00,CLR,,0.02,0.0,WeatherDisplay:10.37,2013-01-23 16:28:00,
2013-01-23 07:33:00,34.5,27.1,29.31,East,94,9.2,9.2,74,0.00,CLR,,0.02,0.0,WeatherDisplay:10.37,2013-01-23 16:33:00,
2013-01-23 07:38:00,34.6,27.2,29.31,East,96,6.9,6.9,74,0.00,CLR,,0.02,0.0,WeatherDisplay:10.37,2013-01-23 16:38:00,
2013-01-23 07:43:00,34.5,27.1,29.31,ESE,111,8.1,8.1,74,0.00,CLR,,0.02,0.0,WeatherDisplay:10.37,2013-01-23 16:43:00,
2013-01-23 07:48:00,34.3,26.9,29.31,ESE,123,8.1,8.1,74,0.00,CLR,,0.02,0.0,WeatherDisplay:10.37,2013-01-23 16:48:00,
2013-01-23 07:53:00,34.1,26.7,29.30,East,100,6.9,6.9,74,0.00,CLR,,0.02,0.0,WeatherDisplay:10.37,2013-01-23 16:53:00,
2013-01-23 07:58:00,34.0,26.9,29.30,ENE,72,4.6,4.6,75,0.00,CLR,,0.02,0.0,WeatherDisplay:10.37,2013-01-23 16:58:00,
2013-01-23 08:03:00,33.9,26.8,29.30,NE,55,6.9,6.9,75,0.00,CLR,,0.02,0.0,WeatherDisplay:10.37,2013-01-23 17:03:00,
2013-01-23 08:08:00,34.2,27.1,29.30,East,84,5.0,5.0,75,0.00,CLR,,0.02,0.0,WeatherDisplay:10.37,2013-01-23 17:08:00,
2013-01-23 08:13:00,34.4,27.3,29.29,ESE,121,7.0,7.0,75,0.00,CLR,,0.02,0.0,WeatherDisplay:10.37,2013-01-23 17:13:00,
2013-01-23 08:18:00,34.6,27.2,29.29,East,86,4.6,4.6,74,0.00,CLR,,0.02,0.0,WeatherDisplay:10.37,2013-01-23 17:18:00,
2013-01-23 08:23:00,34.8,27.4,29.29,East,92,6.9,6.9,74,0.00,CLR,,0.02,0.0,WeatherDisplay:10.37,2013-01-23 17:23:00,
2013-01-23 08:28:00,34.9,27.5,29.29,ENE,73,8.1,8.1,74,0.00,CLR,,0.02,0.0,WeatherDisplay:10.37,2013-01-23 17:28:00,
2013-01-23 08:33:00,34.9,27.8,29.29,ENE,68,9.0,9.0,75,0.00,CLR,,0.02,0.0,WeatherDisplay:10.37,2013-01-23 17:33:00,
2013-01-23 08:38:00,35.0,27.9,29.29,ENE,76,8.1,8.1,75,0.00,CLR,,0.02,0.0,WeatherDisplay:10.37,2013-01-23 17:38:00,
2013-01-23 08:43:00,35.0,27.9,29.29,East,94,6.9,6.9,75,0.00,CLR,,0.02,0.0,WeatherDisplay:10.37,2013-01-23 17:43:00,
2013-01-23 08:48:00,35.0,27.9,29.30,East,96,11.5,11.5,75,0.00,CLR,,0.02,0.0,WeatherDisplay:10.37,2013-01-23 17:48:00,
2013-01-23 08:53:00,35.1,28.0,29.29,East,84,8.1,8.1,75,0.00,CLR,,0.02,0.0,WeatherDisplay:10.37,2013-01-23 17:53:00,
2013-01-23 08:58:00,35.1,27.6,29.30,ESE,111,10.4,10.4,74,0.00,CLR,,0.02,0.0,WeatherDisplay:10.37,2013-01-23 17:58:00,
2013-01-23 09:03:00,35.1,27.6,29.30,ENE,78,8.1,8.1,74,0.00,CLR,,0.02,0.0,WeatherDisplay:10.37,2013-01-23 18:03:00,
2013-01-23 09:08:00,35.0,27.5,29.30,East,80,10.4,10.4,74,0.00,CLR,,0.02,0.0,WeatherDisplay:10.37,2013-01-23 18:08:00,
2013-01-23 09:13:00,35.0,27.5,29.30,ESE,107,8.1,8.1,74,0.00,CLR,,0.02,0.0,WeatherDisplay:10.37,2013-01-23 18:13:00,
2013-01-23 09:18:00,34.9,27.5,29.30,ENE,64,10.4,10.4,74,0.00,CLR,,0.02,0.0,WeatherDisplay:10.37,2013-01-23 18:18:00,
2013-01-23 09:23:00,34.8,27.4,29.30,ENE,71,10.4,10.4,74,0.00,CLR,,0.02,0.0,WeatherDisplay:10.37,2013-01-23 18:23:00,
2013-01-23 09:28:00,34.7,27.3,29.30,ENE,70,9.2,9.2,74,0.00,CLR,,0.02,0.0,WeatherDisplay:10.37,2013-01-23 18:28:00,
2013-01-23 09:33:00,34.7,27.3,29.29,NE,53,6.9,6.9,74,0.00,CLR,,0.02,0.0,WeatherDisplay:10.37,2013-01-23 18:33:00,
2013-01-23 09:38:00,34.8,27.4,29.29,ENE,58,12.7,12.7,74,0.00,CLR,,0.02,0.0,WeatherDisplay:10.37,2013-01-23 18:38:00,
2013-01-23 09:43:00,34.9,27.5,29.30,East,83,7.0,7.0,74,0.00,CLR,,0.02,0.0,WeatherDisplay:10.37,2013-01-23 18:43:00,
2013-01-23 09:48:00,34.9,27.5,29.30,ENE,60,9.2,9.2,74,0.00,CLR,,0.02,5.0,WeatherDisplay:10.37,2013-01-23 18:48:00,
2013-01-23 09:53:00,34.9,27.5,29.30,ENE,67,7.0,7.0,74,0.00,CLR,,0.02,7.0,WeatherDisplay:10.37,2013-01-23 18:53:00,
2013-01-23 09:58:00,34.9,27.1,29.30,NE,36,9.0,9.0,73,0.00,CLR,,0.02,7.0,WeatherDisplay:10.37,2013-01-23 18:58:00,
2013-01-23 10:03:00,34.9,27.5,29.30,East,84,5.0,5.0,74,0.00,CLR,,0.02,7.0,WeatherDisplay:10.37,2013-01-23 19:03:00,
2013-01-23 10:08:00,34.8,27.4,29.30,NE,46,8.1,8.1,74,0.00,CLR,,0.02,9.0,WeatherDisplay:10.37,2013-01-23 19:08:00,
2013-01-23 10:13:00,34.9,27.1,29.30,East,92,8.1,8.1,73,0.00,CLR,,0.02,12.0,WeatherDisplay:10.37,2013-01-23 19:13:00,
2013-01-23 10:18:00,34.9,27.1,29.30,East,87,10.0,10.0,73,0.00,CLR,,0.02,14.0,WeatherDisplay:10.37,2013-01-23 19:18:00,
2013-01-23 10:23:00,35.1,27.3,29.30,East,82,10.4,10.4,73,0.00,CLR,,0.02,16.0,WeatherDisplay:10.37,2013-01-23 19:23:00,
2013-01-23 10:28:00,35.2,27.4,29.30,ENE,71,7.0,7.0,73,0.00,CLR,,0.02,18.0,WeatherDisplay:10.37,2013-01-23 19:28:00,
2013-01-23 10:33:00,35.3,27.5,29.30,ENE,70,8.1,8.1,73,0.00,FEW,,0.02,21.0,WeatherDisplay:10.37,2013-01-23 19:33:00,
2013-01-23 10:38:00,35.5,27.7,29.30,NE,55,10.4,10.4,73,0.00,FEW,,0.02,23.0,WeatherDisplay:10.37,2013-01-23 19:38:00,
2013-01-23 10:43:00,35.6,28.1,29.30,East,99,8.1,8.1,74,0.00,FEW,,0.02,23.0,WeatherDisplay:10.37,2013-01-23 19:43:00,
2013-01-23 10:48:00,35.8,28.3,29.30,East,94,7.0,7.0,74,0.00,FEW,,0.02,25.0,WeatherDisplay:10.37,2013-01-23 19:48:00,
2013-01-23 10:53:00,36.1,28.6,29.30,East,88,6.9,6.9,74,0.00,FEW,,0.02,26.0,WeatherDisplay:10.37,2013-01-23 19:53:00,
2013-01-23 10:58:00,36.2,28.7,29.30,East,93,10.4,10.4,74,0.00,FEW,,0.02,30.0,WeatherDisplay:10.37,2013-01-23 19:58:00,
2013-01-23 11:03:00,36.2,29.0,29.30,East,87,5.8,5.8,75,0.00,FEW,,0.02,40.0,WeatherDisplay:10.37,2013-01-23 20:03:00,
2013-01-23 11:08:00,36.3,29.1,29.30,ENE,77,11.0,11.0,75,0.00,FEW,,0.02,53.0,WeatherDisplay:10.37,2013-01-23 20:08:00,
2013-01-23 11:13:00,36.4,29.2,29.30,NE,56,11.5,11.5,75,0.00,FEW,,0.02,56.0,WeatherDisplay:10.37,2013-01-23 20:13:00,
2013-01-23 11:18:00,36.4,29.2,29.30,NNE,26,9.2,9.2,75,0.00,FEW,,0.02,44.0,WeatherDisplay:10.37,2013-01-23 20:18:00,
2013-01-23 11:23:00,36.2,29.0,29.30,NE,53,9.2,9.2,75,0.00,FEW,,0.02,42.0,WeatherDisplay:10.37,2013-01-23 20:23:00,
2013-01-23 11:28:00,36.1,28.9,29.30,East,79,10.4,10.4,75,0.00,FEW,,0.02,42.0,WeatherDisplay:10.37,2013-01-23 20:28:00,
2013-01-23 11:33:00,36.1,28.9,29.30,NE,46,10.4,10.4,75,0.00,FEW,,0.02,40.0,WeatherDisplay:10.37,2013-01-23 20:33:00,
2013-01-23 11:38:00,36.1,29.3,29.29,ENE,76,9.2,9.2,76,0.00,FEW,,0.02,58.0,WeatherDisplay:10.37,2013-01-23 20:38:00,
2013-01-23 11:43:00,36.1,29.3,29.29,ENE,69,9.2,9.2,76,0.00,FEW,,0.02,62.0,WeatherDisplay:10.37,2013-01-23 20:43:00,
2013-01-23 11:48:00,36.2,29.4,29.29,ENE,78,10.4,10.4,76,0.00,FEW,,0.02,51.0,WeatherDisplay:10.37,2013-01-23 20:48:00,
2013-01-23 11:53:00,36.2,29.0,29.29,East,83,11.5,11.5,75,0.00,FEW,,0.02,46.0,WeatherDisplay:10.37,2013-01-23 20:53:00,
2013-01-23 11:58:00,36.2,28.7,29.29,East,91,11.5,11.5,74,0.00,FEW,,0.02,44.0,WeatherDisplay:10.37,2013-01-23 20:58:00,
2013-01-23 12:03:00,36.2,28.7,29.29,ENE,62,8.1,8.1,74,0.00,FEW,,0.02,49.0,WeatherDisplay:10.37,2013-01-23 21:03:00,
2013-01-23 12:08:00,36.2,28.4,29.29,NE,45,9.2,9.2,73,0.00,FEW,,0.02,53.0,WeatherDisplay:10.37,2013-01-23 21:08:00,
2013-01-23 12:13:00,36.2,28.4,29.28,ENE,74,9.2,9.2,73,0.00,FEW,,0.02,56.0,WeatherDisplay:10.37,2013-01-23 21:13:00,
2013-01-23 12:18:00,36.2,28.4,29.28,East,81,8.1,8.1,73,0.00,FEW,,0.02,60.0,WeatherDisplay:10.37,2013-01-23 21:18:00,
2013-01-23 12:23:00,36.4,28.6,29.28,NE,47,9.2,9.2,73,0.00,FEW,,0.02,67.0,WeatherDisplay:10.37,2013-01-23 21:23:00,
2013-01-23 12:28:00,36.4,28.9,29.28,ESE,108,11.5,11.5,74,0.00,FEW,,0.02,70.0,WeatherDisplay:10.37,2013-01-23 21:28:00,
2013-01-23 12:33:00,36.5,29.0,29.28,NE,56,5.8,5.8,74,0.00,FEW,,0.02,63.0,WeatherDisplay:10.37,2013-01-23 21:33:00,
2013-01-23 12:38:00,36.6,29.1,29.28,East,83,10.4,10.4,74,0.01,RA,,0.03,63.0,WeatherDisplay:10.37,2013-01-23 21:38:00,
2013-01-23 12:43:00,36.6,29.1,29.28,ENE,67,11.5,11.5,74,0.01,RA,,0.03,58.0,WeatherDisplay:10.37,2013-01-23 21:43:00,
2013-01-23 12:48:00,36.7,29.2,29.28,NNE,33,4.6,4.6,74,0.01,FEW,,0.03,56.0,WeatherDisplay:10.37,2013-01-23 21:48:00,
2013-01-23 12:53:00,36.7,29.2,29.28,East,101,9.2,9.2,74,0.01,FEW,,0.03,62.0,WeatherDisplay:10.37,2013-01-23 21:53:00,
2013-01-23 12:58:00,36.8,29.3,29.28,NE,37,9.2,9.2,74,0.01,FEW,,0.03,62.0,WeatherDisplay:10.37,2013-01-23 21:58:00,
2013-01-23 13:03:00,36.8,29.3,29.28,ENE,62,9.2,9.2,74,0.01,CLR,,0.03,67.0,WeatherDisplay:10.37,2013-01-23 22:03:00,
2013-01-23 13:08:00,36.8,29.3,29.28,ESE,116,10.4,10.4,74,0.01,CLR,,0.03,74.0,WeatherDisplay:10.37,2013-01-23 22:08:00,
2013-01-23 13:13:00,36.9,29.4,29.28,East,86,9.2,9.2,74,0.01,CLR,,0.03,76.0,WeatherDisplay:10.37,2013-01-23 22:13:00,
2013-01-23 13:18:00,37.0,29.5,29.28,East,80,9.0,9.0,74,0.01,CLR,,0.03,74.0,WeatherDisplay:10.37,2013-01-23 22:18:00,
2013-01-23 13:23:00,37.0,29.5,29.28,ESE,114,11.5,11.5,74,0.01,CLR,,0.03,77.0,WeatherDisplay:10.37,2013-01-23 22:23:00,
2013-01-23 13:28:00,37.0,29.8,29.28,East,94,10.4,10.4,75,0.01,CLR,,0.03,76.0,WeatherDisplay:10.37,2013-01-23 22:28:00,
2013-01-23 13:33:00,37.0,30.1,29.28,NE,43,10.4,10.4,76,0.01,CLR,,0.03,70.0,WeatherDisplay:10.37,2013-01-23 22:33:00,
2013-01-23 13:38:00,36.9,30.4,29.27,East,85,10.4,10.4,77,0.00,CLR,,0.03,70.0,WeatherDisplay:10.37,2013-01-23 22:38:00,
2013-01-23 13:43:00,36.9,30.4,29.27,ESE,115,11.5,11.5,77,0.00,CLR,,0.03,70.0,WeatherDisplay:10.37,2013-01-23 22:43:00,
2013-01-23 13:48:00,36.9,30.7,29.27,NE,36,15.0,15.0,78,0.00,CLR,,0.03,77.0,WeatherDisplay:10.37,2013-01-23 22:48:00,
2013-01-23 13:53:00,36.9,30.7,29.27,East,91,10.4,10.4,78,0.00,CLR,,0.03,90.0,WeatherDisplay:10.37,2013-01-23 22:53:00,
2013-01-23 13:58:00,36.9,31.0,29.27,ENE,59,9.2,9.2,79,0.00,CLR,,0.03,86.0,WeatherDisplay:10.37,2013-01-23 22:58:00,
2013-01-23 14:03:00,36.9,31.0,29.27,ENE,59,11.5,11.5,79,0.00,SCT,,0.03,72.0,WeatherDisplay:10.37,2013-01-23 23:03:00,
2013-01-23 14:08:00,37.0,30.8,29.27,East,86,10.4,10.4,78,0.00,SCT,,0.03,74.0,WeatherDisplay:10.37,2013-01-23 23:08:00,
2013-01-23 14:13:00,37.0,30.8,29.27,ENE,72,11.5,11.5,78,0.00,SCT,,0.03,70.0,WeatherDisplay:10.37,2013-01-23 23:13:00,
2013-01-23 14:18:00,37.1,30.9,29.27,East,92,16.1,16.1,78,0.00,SCT,,0.03,72.0,WeatherDisplay:10.37,2013-01-23 23:18:00,
2013-01-23 14:23:00,37.1,31.2,29.27,ESE,113,8.1,8.1,79,0.00,SCT,,0.03,69.0,WeatherDisplay:10.37,2013-01-23 23:23:00,
2013-01-23 14:28:00,37.1,31.2,29.27,ENE,75,12.7,12.7,79,0.00,SCT,,0.03,65.0,WeatherDisplay:10.37,2013-01-23 23:28:00,
2013-01-23 14:33:00,37.1,31.2,29.27,ENE,67,11.5,11.5,79,0.00,SCT,,0.03,63.0,WeatherDisplay:10.37,2013-01-23 23:33:00,
2013-01-23 14:38:00,37.3,31.4,29.27,East,82,7.0,7.0,79,0.01,RA,,0.04,46.0,WeatherDisplay:10.37,2013-01-23 23:38:00,
2013-01-23 14:43:00,37.3,31.4,29.27,ENE,67,11.5,11.5,79,0.01,RA,,0.04,37.0,WeatherDisplay:10.37,2013-01-23 23:43:00,
2013-01-23 14:48:00,37.3,31.4,29.27,NNE,24,13.8,13.8,79,0.01,SCT,,0.04,33.0,WeatherDisplay:10.37,2013-01-23 23:48:00,
2013-01-23 14:53:00,37.2,31.3,29.26,ENE,58,7.0,7.0,79,0.01,SCT,,0.04,30.0,WeatherDisplay:10.37,2013-01-23 23:53:00,
2013-01-23 14:58:00,37.0,31.1,29.27,NE,52,9.2,9.2,79,0.01,SCT,,0.04,28.0,WeatherDisplay:10.37,2013-01-23 23:58:00,
2013-01-23 15:03:00,36.8,31.2,29.27,NNE,27,11.5,11.5,80,0.01,CLR,,0.04,26.0,WeatherDisplay:10.37,2013-01-24 00:03:00,
2013-01-23 15:08:00,36.6,31.0,29.27,NNE,28,15.0,15.0,80,0.01,CLR,,0.04,23.0,WeatherDisplay:10.37,2013-01-24 00:08:00,
2013-01-23 15:13:00,36.5,30.9,29.27,ENE,58,11.5,11.5,80,0.01,CLR,,0.04,19.0,WeatherDisplay:10.37,2013-01-24 00:13:00,
2013-01-23 15:18:00,36.3,31.0,29.27,ENE,59,9.2,9.2,81,0.01,CLR,,0.04,18.0,WeatherDisplay:10.37,2013-01-24 00:18:00,
2013-01-23 15:23:00,36.2,31.2,29.27,NE,39,11.5,11.5,82,0.01,CLR,,0.04,18.0,WeatherDisplay:10.37,2013-01-24 00:23:00,
2013-01-23 15:28:00,36.1,31.4,29.27,ENE,63,16.0,16.0,83,0.01,CLR,,0.04,18.0,WeatherDisplay:10.37,2013-01-24 00:28:00,
2013-01-23 15:33:00,36.1,31.4,29.27,ENE,72,11.5,11.5,83,0.01,CLR,,0.04,16.0,WeatherDisplay:10.37,2013-01-24 00:33:00,
2013-01-23 15:38:00,36.0,31.3,29.27,NE,53,11.5,11.5,83,0.00,CLR,,0.04,16.0,WeatherDisplay:10.37,2013-01-24 00:38:00,
2013-01-23 15:43:00,35.8,31.4,29.27,East,82,15.0,15.0,84,0.00,CLR,,0.04,14.0,WeatherDisplay:10.37,2013-01-24 00:43:00,
2013-01-23 15:48:00,35.7,31.0,29.27,ENE,76,16.1,16.1,83,0.00,CLR,,0.04,14.0,WeatherDisplay:10.37,2013-01-24 00:48:00,
2013-01-23 15:53:00,35.6,31.2,29.27,East,80,11.0,11.0,84,0.00,CLR,,0.04,14.0,WeatherDisplay:10.37,2013-01-24 00:53:00,
2013-01-23 15:58:00,35.5,31.1,29.27,East,84,9.2,9.2,84,0.00,CLR,,0.04,12.0,WeatherDisplay:10.37,2013-01-24 00:58:00,
2013-01-23 16:03:00,35.4,31.0,29.27,ENE,64,12.7,12.7,84,0.00,CLR,,0.04,12.0,WeatherDisplay:10.37,2013-01-24 01:03:00,
2013-01-23 16:08:00,35.4,31.0,29.27,NNE,15,11.5,11.5,84,0.00,CLR,,0.04,11.0,WeatherDisplay:10.37,2013-01-24 01:08:00,
2013-01-23 16:13:00,35.3,30.9,29.26,NE,48,16.1,16.1,84,0.00,CLR,,0.04,11.0,WeatherDisplay:10.37,2013-01-24 01:13:00,
2013-01-23 16:18:00,35.2,31.1,29.27,ENE,74,11.5,11.5,85,0.00,CLR,,0.04,11.0,WeatherDisplay:10.37,2013-01-24 01:18:00,
2013-01-23 16:23:00,35.2,31.4,29.27,NE,41,13.8,13.8,86,0.00,CLR,,0.04,9.0,WeatherDisplay:10.37,2013-01-24 01:23:00,
2013-01-23 16:28:00,35.1,31.3,29.27,NE,53,12.7,12.7,86,0.00,CLR,,0.04,9.0,WeatherDisplay:10.37,2013-01-24 01:28:00,
2013-01-23 16:33:00,35.2,31.4,29.27,ENE,74,12.7,12.7,86,0.00,CLR,,0.04,7.0,WeatherDisplay:10.37,2013-01-24 01:33:00,
2013-01-23 16:38:00,35.2,31.4,29.28,NNE,14,9.2,9.2,86,0.00,CLR,,0.04,7.0,WeatherDisplay:10.37,2013-01-24 01:38:00,
2013-01-23 16:43:00,35.2,31.7,29.27,ENE,62,13.8,13.8,87,0.00,CLR,,0.04,5.0,WeatherDisplay:10.37,2013-01-24 01:43:00,
2013-01-23 16:48:00,35.2,31.7,29.27,East,80,11.5,11.5,87,0.00,CLR,,0.04,5.0,WeatherDisplay:10.37,2013-01-24 01:48:00,
2013-01-23 16:53:00,35.2,31.7,29.27,East,98,10.4,10.4,87,0.00,CLR,,0.04,5.0,WeatherDisplay:10.37,2013-01-24 01:53:00,
2013-01-23 16:58:00,35.2,31.7,29.27,ENE,74,12.7,12.7,87,0.00,CLR,,0.04,5.0,WeatherDisplay:10.37,2013-01-24 01:58:00,
2013-01-23 17:03:00,35.1,31.9,29.27,ENE,77,9.2,9.2,88,0.00,CLR,,0.04,5.0,WeatherDisplay:10.37,2013-01-24 02:03:00,
2013-01-23 17:09:00,35.1,31.9,29.27,NNE,30,11.5,11.5,88,0.00,CLR,,0.04,0.0,WeatherDisplay:10.37,2013-01-24 02:09:00,
2013-01-23 17:14:00,35.0,31.8,29.27,NNE,24,11.0,11.0,88,0.00,CLR,,0.04,0.0,WeatherDisplay:10.37,2013-01-24 02:14:00,
2013-01-23 17:19:00,34.8,31.6,29.27,NE,53,11.5,11.5,88,0.00,CLR,,0.04,0.0,WeatherDisplay:10.37,2013-01-24 02:19:00,
2013-01-23 17:24:00,34.6,31.4,29.28,ENE,61,11.5,11.5,88,0.00,CLR,,0.04,0.0,WeatherDisplay:10.37,2013-01-24 02:24:00,
2013-01-23 17:29:00,34.5,31.3,29.28,East,92,7.0,8.0,88,0.00,CLR,,0.04,0.0,WeatherDisplay:10.37,2013-01-24 02:29:00,
2013-01-23 17:34:00,34.3,31.1,29.27,ENE,66,12.7,12.7,88,0.00,CLR,,0.04,0.0,WeatherDisplay:10.37,2013-01-24 02:34:00,
2013-01-23 17:39:00,34.2,31.0,29.28,ENE,75,10.4,10.4,88,0.00,CLR,,0.04,0.0,WeatherDisplay:10.37,2013-01-24 02:39:00,
2013-01-23 17:44:00,34.0,31.1,29.27,East,89,10.4,10.4,89,0.00,CLR,,0.04,0.0,WeatherDisplay:10.37,2013-01-24 02:44:00,
2013-01-23 17:49:00,33.9,31.0,29.27,East,95,11.5,11.5,89,0.00,CLR,,0.04,0.0,WeatherDisplay:10.37,2013-01-24 02:49:00,
2013-01-23 17:54:00,33.7,30.8,29.27,East,88,11.5,11.5,89,0.00,CLR,,0.04,0.0,WeatherDisplay:10.37,2013-01-24 02:54:00,
2013-01-23 17:59:00,33.7,30.8,29.28,NNE,26,10.4,10.4,89,0.00,CLR,,0.04,0.0,WeatherDisplay:10.37,2013-01-24 02:59:00,
2013-01-23 18:04:00,33.6,30.7,29.28,ENE,76,9.0,9.0,89,0.00,CLR,,0.04,0.0,WeatherDisplay:10.37,2013-01-24 03:04:00,
2013-01-23 18:09:00,33.5,30.6,29.28,NE,34,6.9,6.9,89,0.00,CLR,,0.04,0.0,WeatherDisplay:10.37,2013-01-24 03:09:00,
2013-01-23 18:14:00,33.4,30.5,29.28,ENE,67,6.9,6.9,89,0.00,CLR,,0.04,0.0,WeatherDisplay:10.37,2013-01-24 03:14:00,
2013-01-23 18:19:00,33.4,30.8,29.28,East,82,8.1,8.1,90,0.00,FEW,,0.04,0.0,WeatherDisplay:10.37,2013-01-24 03:19:00,
2013-01-23 18:24:00,33.3,30.7,29.28,ENE,75,9.2,9.2,90,0.00,FEW,,0.04,0.0,WeatherDisplay:10.37,2013-01-24 03:24:00,
2013-01-23 18:29:00,33.4,30.8,29.28,NE,38,9.2,9.2,90,0.00,FEW,,0.04,0.0,WeatherDisplay:10.37,2013-01-24 03:29:00,
2013-01-23 18:34:00,33.4,30.8,29.28,East,96,7.0,7.0,90,0.00,FEW,,0.04,0.0,WeatherDisplay:10.37,2013-01-24 03:34:00,
2013-01-23 18:39:00,33.5,30.9,29.28,NE,45,11.5,11.5,90,0.00,FEW,,0.04,0.0,WeatherDisplay:10.37,2013-01-24 03:39:00,
2013-01-23 18:44:00,33.5,30.6,29.29,NE,38,11.5,11.5,89,0.00,FEW,,0.04,0.0,WeatherDisplay:10.37,2013-01-24 03:44:00,
2013-01-23 18:49:00,33.7,31.1,29.29,NNE,19,11.0,11.0,90,0.00,FEW,,0.04,0.0,WeatherDisplay:10.37,2013-01-24 03:49:00,
2013-01-23 18:54:00,33.8,30.9,29.29,ENE,66,13.8,13.8,89,0.00,FEW,,0.04,0.0,WeatherDisplay:10.37,2013-01-24 03:54:00,
2013-01-23 18:59:00,33.9,30.7,29.28,ENE,70,12.7,12.7,88,0.00,FEW,,0.04,0.0,WeatherDisplay:10.37,2013-01-24 03:59:00,
2013-01-23 19:04:00,33.8,30.6,29.29,East,82,11.5,11.5,88,0.00,CLR,,0.04,0.0,WeatherDisplay:10.37,2013-01-24 04:04:00,
2013-01-23 19:09:00,33.7,30.5,29.28,ENE,74,10.4,10.4,88,0.00,CLR,,0.04,0.0,WeatherDisplay:10.37,2013-01-24 04:09:00,
2013-01-23 19:14:00,33.6,30.4,29.29,ENE,76,10.0,10.0,88,0.00,CLR,,0.04,0.0,WeatherDisplay:10.37,2013-01-24 04:14:00,
2013-01-23 19:19:00,33.5,30.3,29.29,NE,55,11.5,11.5,88,0.00,CLR,,0.04,0.0,WeatherDisplay:10.37,2013-01-24 04:19:00,
2013-01-23 19:24:00,33.5,30.3,29.28,East,89,9.2,9.2,88,0.00,CLR,,0.04,0.0,WeatherDisplay:10.37,2013-01-24 04:24:00,
2013-01-23 19:29:00,33.5,30.3,29.29,East,87,15.0,15.0,88,0.00,CLR,,0.04,0.0,WeatherDisplay:10.37,2013-01-24 04:29:00,
2013-01-23 19:34:00,33.5,30.3,29.29,ENE,74,9.0,9.0,88,0.00,CLR,,0.04,0.0,WeatherDisplay:10.37,2013-01-24 04:34:00,
2013-01-23 19:39:00,33.5,30.3,29.29,NE,54,10.4,10.4,88,0.00,CLR,,0.04,0.0,WeatherDisplay:10.37,2013-01-24 04:39:00,
2013-01-23 19:44:00,33.5,30.3,29.29,ENE,57,10.0,10.0,88,0.00,CLR,,0.04,0.0,WeatherDisplay:10.37,2013-01-24 04:44:00,
2013-01-23 19:49:00,33.5,30.3,29.29,ENE,61,9.2,9.2,88,0.00,CLR,,0.04,0.0,WeatherDisplay:10.37,2013-01-24 04:49:00,
2013-01-23 19:54:00,33.4,30.2,29.29,ENE,71,11.5,11.5,88,0.00,CLR,,0.04,0.0,WeatherDisplay:10.37,2013-01-24 04:54:00,
2013-01-23 19:59:00,33.4,30.2,29.30,ENE,65,4.6,4.6,88,0.00,CLR,,0.04,0.0,WeatherDisplay:10.37,2013-01-24 04:59:00,
2013-01-23 20:00:00,33.4,30.2,29.30,East,79,12.0,12.0,88,0.00,CLR,,0.04,0.0,WeatherDisplay:10.37,2013-01-24 05:00:00,
2013-01-23 20:05:00,33.4,30.2,29.30,East,89,10.0,10.0,88,0.00,CLR,,0.04,0.0,WeatherDisplay:10.37,2013-01-24 05:05:00,
2013-01-23 20:10:00,33.3,30.1,29.30,NE,34,9.2,9.2,88,0.00,CLR,,0.04,0.0,WeatherDisplay:10.37,2013-01-24 05:10:00,
2013-01-23 20:15:00,33.2,30.0,29.30,ENE,74,10.4,10.4,88,0.00,CLR,,0.04,0.0,WeatherDisplay:10.37,2013-01-24 05:15:00,
2013-01-23 20:20:00,33.1,29.9,29.30,East,82,8.1,8.1,88,0.00,CLR,,0.04,0.0,WeatherDisplay:10.37,2013-01-24 05:20:00,
2013-01-23 20:25:00,33.0,29.8,29.30,ENE,74,11.5,11.5,88,0.00,CLR,,0.04,0.0,WeatherDisplay:10.37,2013-01-24 05:25:00,
2013-01-23 20:30:00,32.9,29.7,29.30,ENE,69,10.4,10.4,88,0.00,CLR,,0.04,0.0,WeatherDisplay:10.37,2013-01-24 05:30:00,
2013-01-23 20:35:00,32.8,29.6,29.30,East,89,10.4,10.4,88,0.00,CLR,,0.04,0.0,WeatherDisplay:10.37,2013-01-24 05:35:00,
2013-01-23 20:40:00,32.8,29.6,29.30,NE,40,9.2,9.2,88,0.00,CLR,,0.04,0.0,WeatherDisplay:10.37,2013-01-24 05:40:00,
2013-01-23 20:45:00,32.7,29.3,29.31,ENE,77,11.5,11.5,87,0.00,CLR,,0.04,0.0,WeatherDisplay:10.37,2013-01-24 05:45:00,
2013-01-23 20:50:00,32.7,29.3,29.31,East,94,8.1,8.1,87,0.00,CLR,,0.04,0.0,WeatherDisplay:10.37,2013-01-24 05:50:00,
2013-01-23 20:55:00,32.6,29.2,29.31,ENE,73,8.1,8.1,87,0.00,CLR,,0.04,0.0,WeatherDisplay:10.37,2013-01-24 05:55:00,
2013-01-23 21:00:00,32.4,29.0,29.31,ENE,67,6.9,6.9,87,0.00,CLR,,0.04,0.0,WeatherDisplay:10.37,2013-01-24 06:00:00,
2013-01-23 21:05:00,32.3,28.9,29.31,East,84,7.0,7.0,87,0.00,CLR,,0.04,0.0,WeatherDisplay:10.37,2013-01-24 06:05:00,
2013-01-23 21:10:00,32.2,28.8,29.31,NE,53,5.8,5.8,87,0.00,CLR,,0.04,0.0,WeatherDisplay:10.37,2013-01-24 06:10:00,
2013-01-23 21:15:00,32.0,28.6,29.31,East,81,10.4,10.4,87,0.00,CLR,,0.04,0.0,WeatherDisplay:10.37,2013-01-24 06:15:00,
2013-01-23 21:20:00,31.9,28.8,29.31,ENE,69,6.9,6.9,88,0.00,CLR,,0.04,0.0,WeatherDisplay:10.37,2013-01-24 06:20:00,
2013-01-23 21:25:00,31.8,28.7,29.31,ENE,69,6.9,6.9,88,0.00,CLR,,0.04,0.0,WeatherDisplay:10.37,2013-01-24 06:25:00,
2013-01-23 21:30:00,31.8,28.7,29.31,ENE,75,11.5,11.5,88,0.00,CLR,,0.04,0.0,WeatherDisplay:10.37,2013-01-24 06:30:00,
2013-01-23 21:35:00,31.7,28.6,29.31,ENE,62,11.0,11.0,88,0.00,CLR,,0.04,0.0,WeatherDisplay:10.37,2013-01-24 06:35:00,
2013-01-23 21:40:00,31.7,28.6,29.31,ENE,74,5.8,5.8,88,0.00,CLR,,0.04,0.0,WeatherDisplay:10.37,2013-01-24 06:40:00,
2013-01-23 21:45:00,31.7,28.6,29.31,NE,52,8.1,8.1,88,0.00,CLR,,0.04,0.0,WeatherDisplay:10.37,2013-01-24 06:45:00,
2013-01-23 21:50:00,31.6,28.5,29.31,East,84,11.5,11.5,88,0.00,CLR,,0.04,0.0,WeatherDisplay:10.37,2013-01-24 06:50:00,
2013-01-23 21:55:00,31.7,28.6,29.31,ENE,68,8.1,8.1,88,0.00,CLR,,0.04,0.0,WeatherDisplay:10.37,2013-01-24 06:55:00,
2013-01-23 22:00:00,31.7,28.6,29.31,ENE,66,4.6,4.6,88,0.00,CLR,,0.04,0.0,WeatherDisplay:10.37,2013-01-24 07:00:00,
2013-01-23 22:05:00,31.7,28.6,29.31,NE,48,8.0,8.0,88,0.00,CLR,,0.04,0.0,WeatherDisplay:10.37,2013-01-24 07:05:00,
2013-01-23 22:10:00,31.7,28.6,29.31,ENE,71,8.1,8.1,88,0.00,CLR,,0.04,0.0,WeatherDisplay:10.37,2013-01-24 07:10:00,
2013-01-23 22:15:00,31.7,28.6,29.32,ENE,63,6.9,6.9,88,0.00,CLR,,0.04,0.0,WeatherDisplay:10.37,2013-01-24 07:15:00,
2013-01-23 22:20:00,31.7,28.6,29.32,SE,130,5.8,5.8,88,0.00,CLR,,0.04,0.0,WeatherDisplay:10.37,2013-01-24 07:20:00,
2013-01-23 22:25:00,31.6,28.2,29.32,NE,51,6.9,6.9,87,0.00,CLR,,0.04,0.0,WeatherDisplay:10.37,2013-01-24 07:25:00,
2013-01-23 22:30:00,31.5,28.1,29.32,East,79,9.2,9.2,87,0.00,CLR,,0.04,0.0,WeatherDisplay:10.37,2013-01-24 07:30:00,
2013-01-23 22:35:00,31.5,28.1,29.32,ENE,67,6.9,6.9,87,0.00,CLR,,0.04,0.0,WeatherDisplay:10.37,2013-01-24 07:35:00,
2013-01-23 22:40:00,31.4,28.3,29.32,ENE,75,5.8,5.8,88,0.00,CLR,,0.04,0.0,WeatherDisplay:10.37,2013-01-24 07:40:00,
2013-01-23 22:45:00,31.4,28.3,29.32,NE,38,5.8,5.8,88,0.00,CLR,,0.04,0.0,WeatherDisplay:10.37,2013-01-24 07:45:00,
2013-01-23 22:50:00,31.4,28.0,29.33,ENE,77,4.6,4.6,87,0.00,CLR,,0.04,0.0,WeatherDisplay:10.37,2013-01-24 07:50:00,
2013-01-23 22:55:00,31.5,28.4,29.33,ENE,70,5.8,5.8,88,0.00,CLR,,0.04,0.0,WeatherDisplay:10.37,2013-01-24 07:55:00,
2013-01-23 23:00:00,31.6,28.2,29.32,ENE,75,9.2,9.2,87,0.00,CLR,,0.04,0.0,WeatherDisplay:10.37,2013-01-24 08:00:00,
2013-01-23 23:05:00,31.6,28.2,29.32,East,92,8.1,8.1,87,0.00,CLR,,0.04,0.0,WeatherDisplay:10.37,2013-01-24 08:05:00,
2013-01-23 23:10:00,31.7,28.0,29.33,ENE,72,7.0,7.0,86,0.00,CLR,,0.04,0.0,WeatherDisplay:10.37,2013-01-24 08:10:00,
2013-01-23 23:15:00,31.7,28.0,29.33,ENE,73,8.1,8.1,86,0.00,CLR,,0.04,0.0,WeatherDisplay:10.37,2013-01-24 08:15:00,
2013-01-23 23:20:00,31.7,28.0,29.33,East,80,6.9,6.9,86,0.00,CLR,,0.04,0.0,WeatherDisplay:10.37,2013-01-24 08:20:00,
2013-01-23 23:25:00,31.7,28.0,29.33,ENE,71,6.9,6.9,86,0.00,CLR,,0.04,0.0,WeatherDisplay:10.37,2013-01-24 08:25:00,
2013-01-23 23:30:00,31.6,27.9,29.33,East,84,3.5,3.5,86,0.00,CLR,,0.04,0.0,WeatherDisplay:10.37,2013-01-24 08:30:00,
2013-01-23 23:35:00,31.5,27.8,29.33,East,97,6.9,6.9,86,0.00,CLR,,0.04,0.0,WeatherDisplay:10.37,2013-01-24 08:35:00,
2013-01-23 23:40:00,31.5,27.8,29.33,ENE,62,3.5,3.5,86,0.00,CLR,,0.04,0.0,WeatherDisplay:10.37,2013-01-24 08:40:00,
2013-01-23 23:45:00,31.4,27.7,29.33,NE,48,4.6,4.6,86,0.00,CLR,,0.04,0.0,WeatherDisplay:10.37,2013-01-24 08:45:00,
2013-01-23 23:50:00,31.4,27.7,29.33,East,82,8.1,8.1,86,0.00,CLR,,0.04,0.0,WeatherDisplay:10.37,2013-01-24 08:50:00,
2013-01-23 23:55:00,31.4,27.7,29.33,East,82,3.5,3.5,86,0.00,CLR,,0.04,0.0,WeatherDisplay:10.37,2013-01-24 08:55:00,